sensor_id;sensor_type;location;lat;lon;timestamp;P1;durP1;ratioP1;P2;durP2;ratioP2
80576;SDS011;69937;52.420;10.538;2023-06-26T00:04:20;7.60;;;4.30;;
80576;SDS011;69937;52.420;10.538;2023-06-26T00:09:20;4.93;;;3.70;;
80576;SDS011;69937;52.420;10.538;2023-06-26T00:14:21;4.85;;;3.75;;
80576;SDS011;69937;52.420;10.538;2023-06-26T00:19:21;7.15;;;4.13;;
80576;SDS011;69937;52.420;10.538;2023-06-26T00:24:22;8.05;;;3.97;;
80576;SDS011;69937;52.420;10.538;2023-06-26T00:29:22;8.77;;;4.10;;
80576;SDS011;69937;52.420;10.538;2023-06-26T00:34:23;10.35;;;4.32;;
80576;SDS011;69937;52.420;10.538;2023-06-26T00:39:23;9.63;;;4.15;;
80576;SDS011;69937;52.420;10.538;2023-06-26T00:44:25;6.40;;;4.18;;
80576;SDS011;69937;52.420;10.538;2023-06-26T00:49:26;8.48;;;4.07;;
80576;SDS011;69937;52.420;10.538;2023-06-26T00:54:27;8.38;;;4.57;;
80576;SDS011;69937;52.420;10.538;2023-06-26T00:59:28;6.55;;;4.65;;
80576;SDS011;69937;52.420;10.538;2023-06-26T01:04:29;6.97;;;4.47;;
80576;SDS011;69937;52.420;10.538;2023-06-26T01:09:33;7.00;;;4.00;;
80576;SDS011;69937;52.420;10.538;2023-06-26T01:14:34;6.07;;;4.32;;
80576;SDS011;69937;52.420;10.538;2023-06-26T01:19:36;5.18;;;3.35;;
80576;SDS011;69937;52.420;10.538;2023-06-26T01:24:37;7.30;;;3.95;;
80576;SDS011;69937;52.420;10.538;2023-06-26T01:29:40;8.02;;;4.18;;
80576;SDS011;69937;52.420;10.538;2023-06-26T01:34:41;6.55;;;4.38;;
80576;SDS011;69937;52.420;10.538;2023-06-26T01:39:43;9.48;;;3.70;;
80576;SDS011;69937;52.420;10.538;2023-06-26T01:44:44;9.52;;;4.53;;
80576;SDS011;69937;52.420;10.538;2023-06-26T01:49:54;11.15;;;4.13;;
80576;SDS011;69937;52.420;10.538;2023-06-26T02:00:05;5.95;;;4.57;;
80576;SDS011;69937;52.420;10.538;2023-06-26T02:05:10;9.38;;;4.68;;
80576;SDS011;69937;52.420;10.538;2023-06-26T02:10:11;7.43;;;4.57;;
80576;SDS011;69937;52.420;10.538;2023-06-26T02:15:12;9.63;;;4.47;;
80576;SDS011;69937;52.420;10.538;2023-06-26T02:20:13;9.73;;;4.70;;
80576;SDS011;69937;52.420;10.538;2023-06-26T02:25:17;6.13;;;5.18;;
80576;SDS011;69937;52.420;10.538;2023-06-26T02:30:18;7.57;;;4.72;;
80576;SDS011;69937;52.420;10.538;2023-06-26T02:35:18;6.25;;;3.88;;
80576;SDS011;69937;52.420;10.538;2023-06-26T02:40:19;12.13;;;4.35;;
80576;SDS011;69937;52.420;10.538;2023-06-26T02:45:19;8.75;;;4.10;;
80576;SDS011;69937;52.420;10.538;2023-06-26T02:50:20;10.32;;;4.75;;
80576;SDS011;69937;52.420;10.538;2023-06-26T02:55:20;8.85;;;4.72;;
80576;SDS011;69937;52.420;10.538;2023-06-26T03:00:21;11.50;;;3.95;;
80576;SDS011;69937;52.420;10.538;2023-06-26T03:05:21;9.60;;;4.38;;
80576;SDS011;69937;52.420;10.538;2023-06-26T03:10:23;7.65;;;4.25;;
80576;SDS011;69937;52.420;10.538;2023-06-26T03:15:24;11.82;;;4.43;;
80576;SDS011;69937;52.420;10.538;2023-06-26T03:20:25;9.60;;;5.07;;
80576;SDS011;69937;52.420;10.538;2023-06-26T03:25:25;8.15;;;4.50;;
80576;SDS011;69937;52.420;10.538;2023-06-26T03:30:26;8.88;;;4.82;;
80576;SDS011;69937;52.420;10.538;2023-06-26T03:35:26;8.23;;;4.40;;
80576;SDS011;69937;52.420;10.538;2023-06-26T03:40:27;13.65;;;5.10;;
80576;SDS011;69937;52.420;10.538;2023-06-26T03:45:28;7.00;;;4.28;;
80576;SDS011;69937;52.420;10.538;2023-06-26T03:50:28;8.80;;;4.57;;
80576;SDS011;69937;52.420;10.538;2023-06-26T03:55:28;5.80;;;3.88;;
80576;SDS011;69937;52.420;10.538;2023-06-26T04:00:29;12.00;;;4.75;;
80576;SDS011;69937;52.420;10.538;2023-06-26T04:05:30;6.00;;;4.25;;
80576;SDS011;69937;52.420;10.538;2023-06-26T04:10:31;12.88;;;4.60;;
80576;SDS011;69937;52.420;10.538;2023-06-26T04:15:31;7.80;;;3.97;;
80576;SDS011;69937;52.420;10.538;2023-06-26T04:20:32;9.88;;;4.93;;
80576;SDS011;69937;52.420;10.538;2023-06-26T04:25:35;12.68;;;5.32;;
80576;SDS011;69937;52.420;10.538;2023-06-26T04:30:37;13.85;;;4.97;;
80576;SDS011;69937;52.420;10.538;2023-06-26T04:35:38;11.98;;;4.97;;
80576;SDS011;69937;52.420;10.538;2023-06-26T04:40:39;8.60;;;4.28;;
80576;SDS011;69937;52.420;10.538;2023-06-26T04:45:39;8.25;;;4.50;;
80576;SDS011;69937;52.420;10.538;2023-06-26T04:50:40;8.23;;;4.68;;
80576;SDS011;69937;52.420;10.538;2023-06-26T04:55:40;9.93;;;5.45;;
80576;SDS011;69937;52.420;10.538;2023-06-26T05:00:41;11.73;;;5.20;;
80576;SDS011;69937;52.420;10.538;2023-06-26T05:05:45;7.80;;;4.82;;
80576;SDS011;69937;52.420;10.538;2023-06-26T05:10:45;5.22;;;4.13;;
80576;SDS011;69937;52.420;10.538;2023-06-26T05:15:46;8.50;;;4.70;;
80576;SDS011;69937;52.420;10.538;2023-06-26T05:20:47;7.47;;;4.57;;
80576;SDS011;69937;52.420;10.538;2023-06-26T05:25:47;5.35;;;4.03;;
80576;SDS011;69937;52.420;10.538;2023-06-26T05:30:50;5.43;;;4.50;;
80576;SDS011;69937;52.420;10.538;2023-06-26T05:35:52;9.43;;;4.93;;
80576;SDS011;69937;52.420;10.538;2023-06-26T05:40:53;10.30;;;4.72;;
80576;SDS011;69937;52.420;10.538;2023-06-26T05:45:53;5.00;;;3.97;;
80576;SDS011;69937;52.420;10.538;2023-06-26T05:50:54;5.85;;;4.07;;
80576;SDS011;69937;52.420;10.538;2023-06-26T05:55:55;5.90;;;3.78;;
80576;SDS011;69937;52.420;10.538;2023-06-26T06:00:56;10.98;;;3.72;;
80576;SDS011;69937;52.420;10.538;2023-06-26T06:05:56;8.20;;;4.00;;
80576;SDS011;69937;52.420;10.538;2023-06-26T06:10:57;6.55;;;3.90;;
80576;SDS011;69937;52.420;10.538;2023-06-26T06:15:59;7.05;;;3.95;;
80576;SDS011;69937;52.420;10.538;2023-06-26T06:21:00;7.60;;;4.15;;
80576;SDS011;69937;52.420;10.538;2023-06-26T06:26:01;7.53;;;3.70;;
80576;SDS011;69937;52.420;10.538;2023-06-26T06:31:01;6.95;;;3.95;;
80576;SDS011;69937;52.420;10.538;2023-06-26T06:36:03;7.35;;;3.65;;
80576;SDS011;69937;52.420;10.538;2023-06-26T06:41:04;5.50;;;3.58;;
80576;SDS011;69937;52.420;10.538;2023-06-26T06:46:05;4.82;;;3.35;;
80576;SDS011;69937;52.420;10.538;2023-06-26T06:51:05;4.70;;;3.50;;
80576;SDS011;69937;52.420;10.538;2023-06-26T06:56:06;5.90;;;3.50;;
80576;SDS011;69937;52.420;10.538;2023-06-26T07:01:06;5.65;;;3.15;;
80576;SDS011;69937;52.420;10.538;2023-06-26T07:06:07;6.93;;;3.90;;
80576;SDS011;69937;52.420;10.538;2023-06-26T07:11:08;8.10;;;3.80;;
80576;SDS011;69937;52.420;10.538;2023-06-26T07:16:08;7.00;;;4.30;;
80576;SDS011;69937;52.420;10.538;2023-06-26T07:21:11;7.55;;;3.88;;
80576;SDS011;69937;52.420;10.538;2023-06-26T07:26:13;8.23;;;3.80;;
80576;SDS011;69937;52.420;10.538;2023-06-26T07:31:14;14.63;;;4.65;;
80576;SDS011;69937;52.420;10.538;2023-06-26T07:36:16;7.65;;;3.83;;
80576;SDS011;69937;52.420;10.538;2023-06-26T07:41:17;7.00;;;4.22;;
80576;SDS011;69937;52.420;10.538;2023-06-26T07:46:17;7.13;;;3.80;;
80576;SDS011;69937;52.420;10.538;2023-06-26T07:51:18;7.05;;;4.40;;
80576;SDS011;69937;52.420;10.538;2023-06-26T07:56:18;6.93;;;3.83;;
80576;SDS011;69937;52.420;10.538;2023-06-26T08:01:19;8.20;;;3.17;;
80576;SDS011;69937;52.420;10.538;2023-06-26T08:06:20;6.68;;;3.78;;
80576;SDS011;69937;52.420;10.538;2023-06-26T08:11:20;10.60;;;4.03;;
80576;SDS011;69937;52.420;10.538;2023-06-26T08:16:21;5.35;;;3.13;;
80576;SDS011;69937;52.420;10.538;2023-06-26T08:21:21;5.80;;;4.13;;
80576;SDS011;69937;52.420;10.538;2023-06-26T08:26:22;7.22;;;3.97;;
80576;SDS011;69937;52.420;10.538;2023-06-26T08:31:22;5.63;;;4.03;;
80576;SDS011;69937;52.420;10.538;2023-06-26T08:36:23;4.95;;;3.88;;
80576;SDS011;69937;52.420;10.538;2023-06-26T08:41:24;9.82;;;3.97;;
80576;SDS011;69937;52.420;10.538;2023-06-26T08:46:25;5.50;;;4.13;;
80576;SDS011;69937;52.420;10.538;2023-06-26T08:51:25;9.40;;;4.00;;
80576;SDS011;69937;52.420;10.538;2023-06-26T08:56:31;5.65;;;4.10;;
80576;SDS011;69937;52.420;10.538;2023-06-26T09:01:35;5.63;;;4.15;;
80576;SDS011;69937;52.420;10.538;2023-06-26T09:06:36;7.13;;;3.80;;
80576;SDS011;69937;52.420;10.538;2023-06-26T09:11:37;9.02;;;4.15;;
80576;SDS011;69937;52.420;10.538;2023-06-26T09:16:40;5.13;;;3.92;;
80576;SDS011;69937;52.420;10.538;2023-06-26T09:21:42;6.53;;;3.92;;
80576;SDS011;69937;52.420;10.538;2023-06-26T09:26:43;5.82;;;4.43;;
80576;SDS011;69937;52.420;10.538;2023-06-26T09:31:44;6.20;;;4.25;;
80576;SDS011;69937;52.420;10.538;2023-06-26T09:36:45;7.65;;;4.57;;
80576;SDS011;69937;52.420;10.538;2023-06-26T09:41:47;5.65;;;4.30;;
80576;SDS011;69937;52.420;10.538;2023-06-26T09:46:48;4.85;;;3.95;;
80576;SDS011;69937;52.420;10.538;2023-06-26T09:51:48;5.55;;;4.22;;
80576;SDS011;69937;52.420;10.538;2023-06-26T09:56:50;9.27;;;4.07;;
80576;SDS011;69937;52.420;10.538;2023-06-26T10:01:50;7.68;;;4.47;;
80576;SDS011;69937;52.420;10.538;2023-06-26T10:07:01;4.82;;;4.18;;
80576;SDS011;69937;52.420;10.538;2023-06-26T10:12:11;5.68;;;4.50;;
80576;SDS011;69937;52.420;10.538;2023-06-26T10:17:25;6.18;;;4.03;;
80576;SDS011;69937;52.420;10.538;2023-06-26T10:22:31;9.13;;;5.38;;
80576;SDS011;69937;52.420;10.538;2023-06-26T10:27:38;8.65;;;4.97;;
80576;SDS011;69937;52.420;10.538;2023-06-26T10:32:43;6.47;;;5.53;;
80576;SDS011;69937;52.420;10.538;2023-06-26T10:37:46;9.38;;;4.72;;
80576;SDS011;69937;52.420;10.538;2023-06-26T10:42:48;10.25;;;5.30;;
80576;SDS011;69937;52.420;10.538;2023-06-26T10:47:51;10.63;;;5.65;;
80576;SDS011;69937;52.420;10.538;2023-06-26T10:58:26;7.47;;;5.70;;
80576;SDS011;69937;52.420;10.538;2023-06-26T11:03:30;9.07;;;6.43;;
80576;SDS011;69937;52.420;10.538;2023-06-26T11:08:53;8.65;;;6.40;;
80576;SDS011;69937;52.420;10.538;2023-06-26T11:13:53;8.32;;;6.18;;
80576;SDS011;69937;52.420;10.538;2023-06-26T11:18:57;10.75;;;6.07;;
80576;SDS011;69937;52.420;10.538;2023-06-26T11:23:58;13.27;;;7.15;;
80576;SDS011;69937;52.420;10.538;2023-06-26T11:29:02;9.88;;;6.32;;
80576;SDS011;69937;52.420;10.538;2023-06-26T11:34:03;10.88;;;7.57;;
80576;SDS011;69937;52.420;10.538;2023-06-26T11:39:05;14.57;;;8.60;;
80576;SDS011;69937;52.420;10.538;2023-06-26T11:44:07;12.43;;;6.53;;
80576;SDS011;69937;52.420;10.538;2023-06-26T11:49:09;7.93;;;5.57;;
80576;SDS011;69937;52.420;10.538;2023-06-26T11:54:11;10.52;;;5.38;;
80576;SDS011;69937;52.420;10.538;2023-06-26T11:59:14;17.45;;;6.57;;
80576;SDS011;69937;52.420;10.538;2023-06-26T12:04:16;12.23;;;5.72;;
80576;SDS011;69937;52.420;10.538;2023-06-26T12:09:19;9.32;;;5.95;;
80576;SDS011;69937;52.420;10.538;2023-06-26T12:14:23;10.82;;;6.32;;
80576;SDS011;69937;52.420;10.538;2023-06-26T12:19:26;9.63;;;5.93;;
80576;SDS011;69937;52.420;10.538;2023-06-26T12:24:27;9.77;;;5.47;;
80576;SDS011;69937;52.420;10.538;2023-06-26T12:29:32;18.40;;;6.45;;
80576;SDS011;69937;52.420;10.538;2023-06-26T12:34:33;9.88;;;6.93;;
80576;SDS011;69937;52.420;10.538;2023-06-26T12:39:55;10.38;;;6.20;;
80576;SDS011;69937;52.420;10.538;2023-06-26T12:44:57;11.18;;;5.47;;
80576;SDS011;69937;52.420;10.538;2023-06-26T12:49:58;7.85;;;5.72;;
80576;SDS011;69937;52.420;10.538;2023-06-26T12:54:58;8.80;;;5.55;;
80576;SDS011;69937;52.420;10.538;2023-06-26T12:59:59;8.50;;;5.63;;
80576;SDS011;69937;52.420;10.538;2023-06-26T13:05:00;7.63;;;4.45;;
80576;SDS011;69937;52.420;10.538;2023-06-26T13:10:01;10.68;;;5.38;;
80576;SDS011;69937;52.420;10.538;2023-06-26T13:15:02;11.98;;;4.10;;
80576;SDS011;69937;52.420;10.538;2023-06-26T13:20:05;7.53;;;3.67;;
80576;SDS011;69937;52.420;10.538;2023-06-26T13:25:08;5.38;;;3.50;;
80576;SDS011;69937;52.420;10.538;2023-06-26T13:30:09;10.88;;;4.30;;
80576;SDS011;69937;52.420;10.538;2023-06-26T13:35:10;10.10;;;3.97;;
80576;SDS011;69937;52.420;10.538;2023-06-26T13:40:11;8.00;;;3.30;;
80576;SDS011;69937;52.420;10.538;2023-06-26T13:45:12;7.53;;;2.67;;
80576;SDS011;69937;52.420;10.538;2023-06-26T13:50:12;4.63;;;2.60;;
80576;SDS011;69937;52.420;10.538;2023-06-26T13:55:16;5.07;;;2.28;;
80576;SDS011;69937;52.420;10.538;2023-06-26T14:00:17;7.18;;;2.72;;
80576;SDS011;69937;52.420;10.538;2023-06-26T14:05:20;3.70;;;2.17;;
80576;SDS011;69937;52.420;10.538;2023-06-26T14:10:21;4.30;;;2.60;;
80576;SDS011;69937;52.420;10.538;2023-06-26T14:15:23;5.50;;;2.75;;
80576;SDS011;69937;52.420;10.538;2023-06-26T14:20:23;4.38;;;2.50;;
80576;SDS011;69937;52.420;10.538;2023-06-26T14:25:24;7.82;;;2.30;;
80576;SDS011;69937;52.420;10.538;2023-06-26T14:30:28;4.53;;;2.53;;
80576;SDS011;69937;52.420;10.538;2023-06-26T14:35:28;4.60;;;1.80;;
80576;SDS011;69937;52.420;10.538;2023-06-26T14:40:29;4.93;;;1.80;;
80576;SDS011;69937;52.420;10.538;2023-06-26T14:45:29;5.68;;;1.70;;
80576;SDS011;69937;52.420;10.538;2023-06-26T14:50:30;3.88;;;1.13;;
80576;SDS011;69937;52.420;10.538;2023-06-26T14:55:31;7.07;;;1.45;;
80576;SDS011;69937;52.420;10.538;2023-06-26T15:00:31;4.88;;;1.73;;
80576;SDS011;69937;52.420;10.538;2023-06-26T15:05:32;4.78;;;1.48;;
80576;SDS011;69937;52.420;10.538;2023-06-26T15:10:33;3.13;;;1.45;;
80576;SDS011;69937;52.420;10.538;2023-06-26T15:15:33;6.60;;;1.70;;
80576;SDS011;69937;52.420;10.538;2023-06-26T15:20:34;3.53;;;1.60;;
80576;SDS011;69937;52.420;10.538;2023-06-26T15:25:35;5.38;;;1.42;;
80576;SDS011;69937;52.420;10.538;2023-06-26T15:30:36;5.72;;;1.45;;
80576;SDS011;69937;52.420;10.538;2023-06-26T15:35:37;4.15;;;1.50;;
80576;SDS011;69937;52.420;10.538;2023-06-26T15:40:37;4.57;;;1.55;;
80576;SDS011;69937;52.420;10.538;2023-06-26T15:45:38;2.92;;;1.30;;
80576;SDS011;69937;52.420;10.538;2023-06-26T15:50:39;4.28;;;1.48;;
80576;SDS011;69937;52.420;10.538;2023-06-26T15:55:39;5.13;;;1.40;;
80576;SDS011;69937;52.420;10.538;2023-06-26T16:00:40;11.50;;;1.60;;
80576;SDS011;69937;52.420;10.538;2023-06-26T16:05:41;7.22;;;1.60;;
80576;SDS011;69937;52.420;10.538;2023-06-26T16:10:42;4.50;;;1.33;;
80576;SDS011;69937;52.420;10.538;2023-06-26T16:15:43;18.20;;;1.90;;
80576;SDS011;69937;52.420;10.538;2023-06-26T16:20:44;3.45;;;1.23;;
80576;SDS011;69937;52.420;10.538;2023-06-26T16:25:45;3.78;;;1.58;;
80576;SDS011;69937;52.420;10.538;2023-06-26T16:30:47;3.33;;;1.30;;
80576;SDS011;69937;52.420;10.538;2023-06-26T16:35:47;7.22;;;1.95;;
80576;SDS011;69937;52.420;10.538;2023-06-26T16:40:48;4.45;;;1.55;;
80576;SDS011;69937;52.420;10.538;2023-06-26T16:45:49;5.07;;;1.48;;
80576;SDS011;69937;52.420;10.538;2023-06-26T16:50:50;4.72;;;1.48;;
80576;SDS011;69937;52.420;10.538;2023-06-26T16:55:51;3.55;;;1.40;;
80576;SDS011;69937;52.420;10.538;2023-06-26T17:00:51;4.30;;;1.90;;
80576;SDS011;69937;52.420;10.538;2023-06-26T17:05:52;3.60;;;1.45;;
80576;SDS011;69937;52.420;10.538;2023-06-26T17:10:53;6.32;;;1.92;;
80576;SDS011;69937;52.420;10.538;2023-06-26T17:15:54;3.53;;;1.35;;
80576;SDS011;69937;52.420;10.538;2023-06-26T17:20:54;2.60;;;1.30;;
80576;SDS011;69937;52.420;10.538;2023-06-26T17:25:55;4.60;;;1.38;;
80576;SDS011;69937;52.420;10.538;2023-06-26T17:30:58;4.88;;;1.50;;
80576;SDS011;69937;52.420;10.538;2023-06-26T17:35:58;4.63;;;1.50;;
80576;SDS011;69937;52.420;10.538;2023-06-26T17:40:59;9.18;;;1.48;;
80576;SDS011;69937;52.420;10.538;2023-06-26T17:46:00;3.72;;;1.15;;
80576;SDS011;69937;52.420;10.538;2023-06-26T17:51:00;5.30;;;1.40;;
80576;SDS011;69937;52.420;10.538;2023-06-26T17:56:02;2.90;;;1.05;;
80576;SDS011;69937;52.420;10.538;2023-06-26T18:01:03;4.60;;;1.70;;
80576;SDS011;69937;52.420;10.538;2023-06-26T18:06:03;5.60;;;1.83;;
80576;SDS011;69937;52.420;10.538;2023-06-26T18:11:04;4.95;;;1.40;;
80576;SDS011;69937;52.420;10.538;2023-06-26T18:16:04;3.17;;;1.42;;
80576;SDS011;69937;52.420;10.538;2023-06-26T18:21:07;2.85;;;1.35;;
80576;SDS011;69937;52.420;10.538;2023-06-26T18:26:07;3.08;;;1.30;;
80576;SDS011;69937;52.420;10.538;2023-06-26T18:31:08;2.47;;;0.90;;
80576;SDS011;69937;52.420;10.538;2023-06-26T18:36:09;4.40;;;1.08;;
80576;SDS011;69937;52.420;10.538;2023-06-26T18:41:10;4.90;;;1.50;;
80576;SDS011;69937;52.420;10.538;2023-06-26T18:46:10;5.90;;;1.45;;
80576;SDS011;69937;52.420;10.538;2023-06-26T18:51:11;2.58;;;1.58;;
80576;SDS011;69937;52.420;10.538;2023-06-26T18:56:11;2.28;;;1.13;;
80576;SDS011;69937;52.420;10.538;2023-06-26T19:01:12;4.68;;;1.30;;
80576;SDS011;69937;52.420;10.538;2023-06-26T19:06:13;3.45;;;0.90;;
80576;SDS011;69937;52.420;10.538;2023-06-26T19:11:14;3.38;;;1.42;;
80576;SDS011;69937;52.420;10.538;2023-06-26T19:16:17;5.18;;;1.42;;
80576;SDS011;69937;52.420;10.538;2023-06-26T19:21:18;2.97;;;1.35;;
80576;SDS011;69937;52.420;10.538;2023-06-26T19:26:19;4.78;;;1.52;;
80576;SDS011;69937;52.420;10.538;2023-06-26T19:31:20;2.25;;;1.05;;
80576;SDS011;69937;52.420;10.538;2023-06-26T19:36:21;3.47;;;1.45;;
80576;SDS011;69937;52.420;10.538;2023-06-26T19:41:21;6.65;;;1.65;;
80576;SDS011;69937;52.420;10.538;2023-06-26T19:46:22;4.47;;;1.30;;
80576;SDS011;69937;52.420;10.538;2023-06-26T19:51:23;3.50;;;1.17;;
80576;SDS011;69937;52.420;10.538;2023-06-26T19:56:23;2.47;;;1.50;;
80576;SDS011;69937;52.420;10.538;2023-06-26T20:01:25;2.88;;;1.10;;
80576;SDS011;69937;52.420;10.538;2023-06-26T20:06:25;2.72;;;1.25;;
80576;SDS011;69937;52.420;10.538;2023-06-26T20:11:26;3.70;;;1.25;;
80576;SDS011;69937;52.420;10.538;2023-06-26T20:16:27;4.45;;;0.98;;
80576;SDS011;69937;52.420;10.538;2023-06-26T20:21:28;2.22;;;1.00;;
80576;SDS011;69937;52.420;10.538;2023-06-26T20:26:29;4.95;;;1.13;;
80576;SDS011;69937;52.420;10.538;2023-06-26T20:31:29;13.32;;;1.10;;
80576;SDS011;69937;52.420;10.538;2023-06-26T20:36:31;5.00;;;1.30;;
80576;SDS011;69937;52.420;10.538;2023-06-26T20:41:32;7.60;;;1.60;;
80576;SDS011;69937;52.420;10.538;2023-06-26T20:46:33;2.17;;;1.35;;
80576;SDS011;69937;52.420;10.538;2023-06-26T20:51:36;6.38;;;1.50;;
80576;SDS011;69937;52.420;10.538;2023-06-26T20:56:38;5.57;;;1.63;;
80576;SDS011;69937;52.420;10.538;2023-06-26T21:01:39;7.30;;;1.48;;
80576;SDS011;69937;52.420;10.538;2023-06-26T21:06:39;3.60;;;1.67;;
80576;SDS011;69937;52.420;10.538;2023-06-26T21:11:40;4.68;;;1.17;;
80576;SDS011;69937;52.420;10.538;2023-06-26T21:16:41;5.78;;;2.00;;
80576;SDS011;69937;52.420;10.538;2023-06-26T21:21:41;5.68;;;1.88;;
80576;SDS011;69937;52.420;10.538;2023-06-26T21:26:42;2.15;;;1.13;;
80576;SDS011;69937;52.420;10.538;2023-06-26T21:31:42;5.63;;;1.70;;
80576;SDS011;69937;52.420;10.538;2023-06-26T21:36:43;4.35;;;1.73;;
80576;SDS011;69937;52.420;10.538;2023-06-26T21:41:44;5.80;;;1.75;;
80576;SDS011;69937;52.420;10.538;2023-06-26T21:46:45;3.70;;;1.90;;
80576;SDS011;69937;52.420;10.538;2023-06-26T21:51:45;5.95;;;1.90;;
80576;SDS011;69937;52.420;10.538;2023-06-26T21:56:46;3.47;;;1.77;;
80576;SDS011;69937;52.420;10.538;2023-06-26T22:01:46;7.40;;;2.42;;
80576;SDS011;69937;52.420;10.538;2023-06-26T22:06:47;3.63;;;1.50;;
80576;SDS011;69937;52.420;10.538;2023-06-26T22:11:48;6.55;;;2.20;;
80576;SDS011;69937;52.420;10.538;2023-06-26T22:16:49;7.50;;;1.95;;
80576;SDS011;69937;52.420;10.538;2023-06-26T22:21:49;6.50;;;1.92;;
80576;SDS011;69937;52.420;10.538;2023-06-26T22:26:50;6.40;;;1.80;;
80576;SDS011;69937;52.420;10.538;2023-06-26T22:31:51;4.07;;;2.10;;
80576;SDS011;69937;52.420;10.538;2023-06-26T22:36:51;6.70;;;2.00;;
80576;SDS011;69937;52.420;10.538;2023-06-26T22:41:52;6.50;;;2.25;;
80576;SDS011;69937;52.420;10.538;2023-06-26T22:46:52;9.50;;;2.33;;
80576;SDS011;69937;52.420;10.538;2023-06-26T22:51:53;3.80;;;1.83;;
80576;SDS011;69937;52.420;10.538;2023-06-26T22:56:54;3.20;;;1.80;;
80576;SDS011;69937;52.420;10.538;2023-06-26T23:01:54;5.57;;;2.20;;
80576;SDS011;69937;52.420;10.538;2023-06-26T23:06:56;6.10;;;2.42;;
80576;SDS011;69937;52.420;10.538;2023-06-26T23:11:56;5.97;;;2.47;;
80576;SDS011;69937;52.420;10.538;2023-06-26T23:16:57;8.52;;;2.08;;
80576;SDS011;69937;52.420;10.538;2023-06-26T23:22:04;7.45;;;2.17;;
80576;SDS011;69937;52.420;10.538;2023-06-26T23:27:09;7.03;;;1.27;;
80576;SDS011;69937;52.420;10.538;2023-06-26T23:32:10;4.93;;;2.08;;
80576;SDS011;69937;52.420;10.538;2023-06-26T23:37:11;13.07;;;2.30;;
80576;SDS011;69937;52.420;10.538;2023-06-26T23:42:12;5.30;;;2.15;;
80576;SDS011;69937;52.420;10.538;2023-06-26T23:47:15;7.65;;;1.83;;
80576;SDS011;69937;52.420;10.538;2023-06-26T23:52:19;4.20;;;1.75;;
80576;SDS011;69937;52.420;10.538;2023-06-26T23:57:22;7.65;;;2.00;;
